Portada
METAR-TAF:

METAR-TAF

Aeroports :

Patna, Índia

latitud: 25-36N, longitud: 085-06E, altitud: 51 m

Observació

L'informe es va fer fa 28 minuts, a les 23:30 UTC
Vent 5 kt del Est
Temperatura 28°C
Humitat 94%
Pressió 998 hPa
Visibilitat: 3000 m
boirina

METAR: VEPT 032330Z 08005KT 3000 BR NSC 28/27 Q0998 NOSIG

Hora: 05:28 (23:58 UTC)

Pronòstic

L'informe es va fer fa 3 hores i 58 minuts, a les 20:00 UTC
Pronòstic vàlid del 03 a les 21 UTC al 04 a les 06 UTC
Vent 5 kt del Est
Visibilitat: 2500 m
Núvols disperses a una alçada de 1500 ft
Escasses núvols a una alçada de 3000 ft, Cumulonimbus.
Cel ennuvolat a una alçada de 10000 ft
pluja, boirina
Evolucionant progressivament
l' 04 a les 03 UTC al 04 a les 05 UTC
Visibilitat: 3500 m
pluja, calitja

TAF: VEPT 032000Z 0321/0406 09005KT 2500 -RA BR SCT015 FEW030CB BKN100 BECMG 0403/0405 3500 -RA HZ

Observacions i pronòstics meteorològics de més de 4000 aeroports (METAR i TAF).

Les estacions disponibles són els punts grocs i vermells al mapa.

Posi el ratolí al punt desitjat per veure el nom de l'estació.

Feu clic per veure les observacions i els pronòstics meteorològics.

Per canviar el mapa: feu clic els botons verds amb una creu de color negre per apropar; al botó verd amb un guió per allunyar la imatge; o en les fletxes verdes per a mapes adjacents.


METAR-TAF: